Time;durP1;ratioP1;P1;durP2;ratioP2;P2;SDS_P1;SDS_P2;PMS_P1;PMS_P2;Temp;Humidity;BMP_temperature;BMP_pressure;BME280_temperature;BME280_humidity;BME280_pressure;Samples;Min_cycle;Max_cycle;Signal;HPM_P1;HPM_P2
2021/07/24 00:02:37;;;;;;;;;;;;;;;;;;;;;
2021/07/24 00:07:20;;;;;;;8.73;7.85;;;;;;;25.21;46.95;100126.80;1941314;101;25790;-79
2021/07/24 00:11:19;;;;;;;10.38;8.23;;;;;;;25.18;47.10;100118.48;1933789;100;25934;-81
2021/07/24 00:18:50;;;;;;;11.22;7.55;;;;;;;25.13;47.40;100127.59;1777372;110;26214;-80
2021/07/24 00:22:30;;;;;;;7.83;7.03;;;;;;;25.10;47.49;100130.34;1819864;107;25863;-74
2021/07/24 00:35:01;;;;;;;12.03;7.67;;;;;;;24.96;47.81;100134.43;1870784;104;25908;-81
2021/07/24 00:38:25;;;;;;;9.43;7.85;;;;;;;24.96;47.93;100138.43;1859788;105;25755;-77
2021/07/24 00:42:23;;;;;;;8.68;7.67;;;;;;;24.94;47.97;100134.97;1851495;104;25880;-79
2021/07/24 00:54:30;;;;;;;8.48;7.55;;;;;;;24.86;48.23;100129.53;1895257;103;25816;-80
2021/07/24 00:58:58;;;;;;;;;;;;;;;;;;;;;
2021/07/24 01:02:50;;;;;;;8.70;7.72;;;;;;;24.81;48.35;100132.39;1833308;105;25632;-76
2021/07/24 01:06:36;;;;;;;8.88;7.40;;;;;;;24.77;48.38;100132.08;1848800;105;25351;-80
2021/07/24 01:10:59;;;;;;;;;;;;;;;;;;;;;
2021/07/24 01:14:26;;;;;;;10.23;8.28;;;;;;;24.67;48.59;100126.70;1923729;98;25630;-80
2021/07/24 01:18:22;;;;;;;8.53;7.67;;;;;;;24.64;48.69;100127.71;2031880;95;25740;-80
2021/07/24 01:22:12;;;;;;;7.83;7.12;;;;;;;24.62;48.68;100126.88;2097101;92;25685;-80
2021/07/24 01:26:06;;;;;;;8.88;7.42;;;;;;;24.58;48.79;100119.08;2169303;89;25726;-80
2021/07/24 01:29:36;;;;;;;10.20;7.70;;;;;;;24.55;48.79;100124.52;2134627;91;25379;-80
2021/07/24 01:33:34;;;;;;;;;;;;;;;;;;;;;
2021/07/24 01:37:22;;;;;;;8.45;7.60;;;;;;;24.51;48.97;100126.44;2134295;92;26596;-76
2021/07/24 01:41:40;;;;;;;8.70;7.60;;;;;;;24.49;49.09;100124.28;2133648;91;25633;-81
2021/07/24 01:45:33;;;;;;;8.33;7.45;;;;;;;24.48;49.14;100117.22;2134571;91;25930;-78
2021/07/24 01:53:32;;;;;;;11.48;7.67;;;;;;;24.42;49.26;100119.64;2092262;92;25853;-81
2021/07/24 02:01:54;;;;;;;;;;;;;;;;;;;;;
2021/07/24 02:05:37;;;;;;;12.73;7.92;;;;;;;24.33;49.44;100115.95;2088202;93;25873;-78
2021/07/24 02:09:32;;;;;;;9.23;7.87;;;;;;;24.32;49.52;100110.69;2064170;95;25826;-77
2021/07/24 02:13:13;;;;;;;9.30;8.00;;;;;;;24.27;49.59;100117.07;2036938;94;26005;-79
2021/07/24 02:17:16;;;;;;;10.03;7.78;;;;;;;24.25;49.74;100111.39;2015998;96;25782;-74
2021/07/24 02:28:35;;;;;;;8.95;7.75;;;;;;;24.22;49.93;100112.83;1995739;97;25888;-78
2021/07/24 02:32:20;;;;;;;12.98;7.30;;;;;;;24.19;49.99;100113.80;1979407;97;25716;-75
2021/07/24 02:36:08;;;;;;;;;;;;;;;;;;;;;
2021/07/24 02:39:39;;;;;;;9.98;7.70;;;;;;;24.11;50.09;100112.36;2000893;97;25970;-80
2021/07/24 02:43:14;;;;;;;8.15;7.08;;;;;;;24.07;50.24;100104.95;2019723;96;25640;-80
2021/07/24 02:47:21;;;;;;;;;;;;;;;;;;;;;
2021/07/24 02:50:33;;;;;;;9.40;7.25;;;;;;;24.10;50.34;100099.95;2007527;93;25808;-79
2021/07/24 02:54:21;;;;;;;8.40;7.47;;;;;;;24.08;50.37;100092.03;1998244;98;25844;-80
2021/07/24 02:57:43;;;;;;;10.28;8.35;;;;;;;24.08;50.45;100098.69;2015151;97;25373;-81
2021/07/24 03:01:23;;;;;;;;;;;;;;;;;;;;;
2021/07/24 03:05:11;;;;;;;8.73;7.60;;;;;;;24.05;50.54;100093.47;2015143;98;25757;-80
2021/07/24 03:08:49;;;;;;;10.78;8.55;;;;;;;24.02;50.67;100095.78;2040347;95;25863;-81
2021/07/24 03:12:41;;;;;;;12.15;8.23;;;;;;;24.01;50.75;100091.38;1984124;98;30943;-75
2021/07/24 03:16:35;;;;;;;11.35;8.28;;;;;;;24.05;50.73;100092.14;1982902;99;25764;-76
2021/07/24 03:20:49;;;;;;;;;;;;;;;;;;;;;
2021/07/24 03:24:36;;;;;;;10.23;8.18;;;;;;;24.03;50.89;100097.53;2001490;96;25888;-80
2021/07/24 03:28:54;;;;;;;10.05;7.80;;;;;;;24.08;50.91;100101.82;1982520;98;25851;-80
2021/07/24 03:33:10;;;;;;;;;;;;;;;;;;;;;
2021/07/24 03:36:57;;;;;;;11.03;8.30;;;;;;;24.07;51.03;100098.77;1937351;99;25834;-79
2021/07/24 03:40:43;;;;;;;10.35;8.50;;;;;;;24.08;51.00;100096.49;1941269;101;25932;-81
2021/07/24 03:44:16;;;;;;;11.78;8.85;;;;;;;24.05;51.04;100104.13;1938777;100;25892;-74
2021/07/24 03:47:49;;;;;;;8.18;7.37;;;;;;;24.02;51.09;100099.77;2007990;97;25844;-80
2021/07/24 03:51:25;;;;;;;;;;;;;;;;;;;;;
2021/07/24 03:55:55;;;;;;;11.45;8.18;;;;;;;24.09;51.13;100092.89;1960337;100;25942;-80
2021/07/24 03:59:44;;;;;;;10.70;8.15;;;;;;;24.12;51.10;100099.44;1994910;97;25823;-74
2021/07/24 04:08:51;;;;;;;8.73;7.40;;;;;;;24.14;51.03;100106.46;1933046;100;25563;-77
2021/07/24 04:12:42;;;;;;;9.75;8.25;;;;;;;24.15;51.06;100104.66;1959016;99;25837;-81
2021/07/24 04:16:39;;;;;;;13.35;10.05;;;;;;;24.16;51.00;100102.39;1963195;99;25820;-80
2021/07/24 04:20:12;;;;;;;11.03;7.60;;;;;;;24.17;51.02;100105.48;1990625;97;25680;-79
2021/07/24 04:24:18;;;;;;;;;;;;;;;;;;;;;
2021/07/24 04:27:33;;;;;;;16.15;8.85;;;;;;;24.25;50.86;100106.06;1982393;95;26659;-79
2021/07/24 04:32:13;;;;;;;15.38;9.25;;;;;;;24.28;50.80;100107.28;2020361;96;25828;-81
2021/07/24 04:35:55;;;;;;;10.23;7.95;;;;;;;24.31;50.68;100108.50;2075564;93;25294;-77
2021/07/24 04:39:37;;;;;;;16.60;9.00;;;;;;;24.33;50.57;100109.29;1997340;97;26029;-76
2021/07/24 04:44:14;;;;;;;9.40;8.18;;;;;;;24.37;50.51;100108.74;1985627;96;25777;-79
2021/07/24 04:47:42;;;;;;;12.90;8.40;;;;;;;24.37;50.52;100108.27;1988243;98;25748;-80
2021/07/24 04:51:25;;;;;;;12.58;9.05;;;;;;;24.36;50.56;100110.52;1985114;98;25813;-75
2021/07/24 05:03:07;;;;;;;10.88;8.75;;;;;;;24.47;50.64;100111.50;1864231;102;25982;-81
2021/07/24 05:06:55;;;;;;;10.50;8.78;;;;;;;24.53;50.67;100111.70;1780169;109;25971;-76
2021/07/24 05:11:02;;;;;;;13.72;9.10;;;;;;;24.59;50.60;100110.14;1793154;108;30979;-80
2021/07/24 05:18:56;;;;;;;16.15;10.03;;;;;;;24.69;50.58;100115.52;1733571;112;25990;-80
2021/07/24 05:23:20;;;;;;;;;;;;;;;;;;;;;
2021/07/24 05:26:26;;;;;;;15.65;9.70;;;;;;;24.87;50.52;100117.48;1702950;114;25818;-74
2021/07/24 05:30:07;;;;;;;;;;;;;;;;;;;;;
2021/07/24 05:37:37;;;;;;;10.88;9.00;;;;;;;25.06;50.76;100124.73;1683367;116;25893;-80
2021/07/24 05:41:03;;;;;;;16.62;8.78;;;;;;;25.23;50.62;100120.08;1696035;112;25951;-82
2021/07/24 05:44:24;;;;;;;12.65;9.48;;;;;;;25.44;50.31;100112.51;1781350;108;25848;-76
2021/07/24 05:47:47;;;;;;;12.33;9.13;;;;;;;25.63;50.08;100117.48;1865094;99;25744;-75
2021/07/24 05:51:16;;;;;;;14.47;9.78;;;;;;;25.83;49.83;100117.98;1993193;97;25732;-81
2021/07/24 05:54:42;;;;;;;12.30;8.85;;;;;;;25.94;49.63;100121.52;2064034;94;25802;-81
2021/07/24 05:58:40;;;;;;;;;;;;;;;;;;;;;
2021/07/24 06:02:14;;;;;;;11.55;8.73;;;;;;;26.12;49.23;100115.81;2053372;94;25811;-81
2021/07/24 06:06:15;;;;;;;15.32;10.20;;;;;;;26.23;49.03;100120.23;2079221;93;25855;-80
2021/07/24 06:10:29;;;;;;;12.07;8.65;;;;;;;26.29;48.92;100113.71;2104117;92;25898;-81
2021/07/24 06:22:33;;;;;;;12.20;8.70;;;;;;;26.69;48.17;100115.44;2015064;96;25487;-78
2021/07/24 06:26:18;;;;;;;10.25;9.38;;;;;;;26.83;47.92;100116.11;2006365;97;25742;-76
2021/07/24 06:29:43;;;;;;;9.03;8.13;;;;;;;26.96;47.85;100111.05;2024460;96;25792;-81
2021/07/24 06:41:22;;;;;;;10.45;7.72;;;;;;;27.69;47.10;100106.54;1926342;102;25737;-79
2021/07/24 06:45:30;;;;;;;11.85;7.78;;;;;;;28.02;46.65;100116.00;1861871;102;25850;-80
2021/07/24 06:52:52;;;;;;;9.13;7.67;;;;;;;28.77;45.47;100116.44;1940575;101;25910;-79
2021/07/24 06:56:38;;;;;;;8.43;7.67;;;;;;;29.11;44.97;100112.25;1910300;103;25799;-81
2021/07/24 07:00:08;;;;;;;8.63;7.75;;;;;;;29.47;44.58;100111.06;1911063;102;25964;-80
2021/07/24 07:03:47;;;;;;;8.73;8.00;;;;;;;29.84;44.00;100119.64;1912027;102;25592;-80
2021/07/24 07:07:30;;;;;;;8.43;7.72;;;;;;;30.23;43.27;100118.17;1895705;102;25879;-80
2021/07/24 07:11:24;;;;;;;9.08;8.18;;;;;;;30.64;42.81;100121.41;1829203;106;25610;-79
2021/07/24 07:15:02;;;;;;;9.23;6.97;;;;;;;31.12;42.16;100121.89;1824842;106;25841;-79
2021/07/24 07:18:38;;;;;;;7.85;7.22;;;;;;;31.57;41.51;100123.88;1809887;106;25845;-77
2021/07/24 07:22:46;;;;;;;13.43;7.35;;;;;;;32.01;40.80;100127.58;1773266;109;25864;-79
2021/07/24 07:26:28;;;;;;;11.10;6.65;;;;;;;32.46;40.15;100129.36;1787914;109;25905;-81
2021/07/24 07:30:50;;;;;;;7.90;7.22;;;;;;;32.99;39.44;100130.03;1784647;109;26272;-80
2021/07/24 07:35:10;;;;;;;7.05;6.53;;;;;;;33.56;38.60;100136.13;1783238;109;25897;-78
2021/07/24 07:39:28;;;;;;;11.88;7.33;;;;;;;34.18;37.61;100147.61;1784999;109;33006;-79
2021/07/24 07:43:07;;;;;;;11.28;7.35;;;;;;;34.03;36.71;100149.69;1759763;111;25850;-76
2021/07/24 07:46:58;;;;;;;6.72;6.12;;;;;;;33.67;36.15;100152.01;1757820;109;25918;-77
2021/07/24 07:50:17;;;;;;;7.10;6.53;;;;;;;33.42;36.07;100156.55;1715674;113;25588;-80
2021/07/24 07:54:12;;;;;;;10.48;6.65;;;;;;;33.38;35.91;100161.82;1726498;113;26106;-80
2021/07/24 08:01:58;;;;;;;8.05;6.83;;;;;;;34.82;34.82;100164.64;1654777;117;26658;-76
2021/07/24 08:05:37;;;;;;;;;;;;;;;;;;;;;
2021/07/24 08:09:20;;;;;;;6.87;6.37;;;;;;;36.02;33.18;100174.05;1667572;117;25908;-80
2021/07/24 08:17:16;;;;;;;7.53;6.22;;;;;;;37.35;31.70;100174.91;1780586;109;25928;-76
2021/07/24 08:25:00;;;;;;;5.90;5.33;;;;;;;38.37;30.24;100175.82;1800488;108;26051;-80
2021/07/24 08:29:05;;;;;;;5.95;5.50;;;;;;;38.95;29.56;100176.98;1771666;110;26749;-79
2021/07/24 08:33:04;;;;;;;6.28;5.67;;;;;;;39.41;28.63;100181.42;1695072;115;25878;-79
2021/07/24 08:36:45;;;;;;;7.00;5.40;;;;;;;39.82;28.10;100177.72;1676439;116;25929;-80
2021/07/24 08:40:30;;;;;;;6.37;5.75;;;;;;;40.22;27.62;100183.69;1697538;115;26514;-79
2021/07/24 08:44:24;;;;;;;5.67;5.08;;;;;;;40.58;27.10;100179.84;1758929;110;25919;-78
2021/07/24 08:48:16;;;;;;;6.80;5.70;;;;;;;40.92;26.71;100176.23;1924750;101;25825;-78
2021/07/24 08:52:22;;;;;;;5.67;5.12;;;;;;;41.34;26.30;100188.16;1941251;101;25792;-80
2021/07/24 08:56:19;;;;;;;;;;;;;;;41.68;25.88;100182.09;1915349;103;25324;-79
2021/07/24 09:04:12;;;;;;;5.12;4.72;;;;;;;41.62;25.57;100179.19;1845197;105;25961;-78
2021/07/24 09:08:19;;;;;;;6.10;5.50;;;;;;;41.17;26.02;100178.55;1858005;104;25775;-79
2021/07/24 09:11:52;;;;;;;5.78;5.30;;;;;;;40.70;26.29;100177.66;1843597;105;25857;-79
2021/07/24 09:19:19;;;;;;;;;;;;;;;;;;;;;
2021/07/24 09:26:59;;;;;;;13.80;6.10;;;;;;;38.69;28.02;100167.25;1872963;101;25651;-75
2021/07/24 09:35:15;;;;;;;;;;;;;;;;;;;;;
2021/07/24 09:43:24;;;;;;;6.08;5.55;;;;;;;37.00;29.56;100155.91;1906100;102;25877;-76
2021/07/24 09:51:53;;;;;;;;;;;;;;;;;;;;;
2021/07/24 09:55:29;;;;;;;6.85;6.05;;;;;;;36.04;30.64;100148.13;1787105;109;25854;-79
2021/07/24 09:59:35;;;;;;;8.63;6.70;;;;;;;35.76;30.97;100144.20;1810374;108;25861;-80
2021/07/24 10:11:59;;;;;;;8.50;6.95;;;;;;;34.99;31.84;100137.02;1774872;110;25802;-80
2021/07/24 10:16:03;;;;;;;6.80;6.10;;;;;;;34.76;32.17;100134.38;1845073;103;25955;-78
2021/07/24 10:19:43;;;;;;;7.65;6.65;;;;;;;34.58;32.36;100126.88;1889043;102;26222;-80
2021/07/24 10:23:28;;;;;;;;;;;;;;;;;;;;;
2021/07/24 10:31:41;;;;;;;;;;;;;;;;;;;;;
2021/07/24 10:35:53;;;;;;;7.45;6.67;;;;;;;33.94;33.13;100137.70;1930908;98;25865;-76
2021/07/24 10:39:47;;;;;;;8.08;7.25;;;;;;;33.83;33.23;100130.42;2001524;96;25925;-80
2021/07/24 10:43:08;;;;;;;7.03;6.42;;;;;;;33.73;33.33;100125.36;2061261;95;25846;-79
2021/07/24 10:46:52;;;;;;;8.28;6.47;;;;;;;33.66;33.40;100120.55;2069207;94;25783;-81
2021/07/24 10:59:53;;;;;;;;;;;;;;;;;;;;;
2021/07/24 11:04:12;;;;;;;9.00;7.28;;;;;;;33.57;33.48;100120.27;1921335;102;25403;-78
2021/07/24 11:13:00;;;;;;;;;;;;;;;;;;;;;
2021/07/24 11:16:46;;;;;;;;;;;;;;;33.68;33.54;100108.62;1856174;104;25899;-76
2021/07/24 11:20:27;;;;;;;7.37;6.67;;;;;;;33.77;33.49;100103.86;1854273;106;25930;-79
2021/07/24 11:24:23;;;;;;;7.28;6.67;;;;;;;33.88;33.48;100107.07;1854376;106;25914;-80
2021/07/24 11:31:52;;;;;;;12.95;7.17;;;;;;;34.15;33.23;100107.27;1877019;101;25539;-80
2021/07/24 11:39:11;;;;;;;8.78;7.47;;;;;;;34.68;32.85;100109.75;1888741;102;25848;-80
2021/07/24 11:42:47;;;;;;;8.63;7.17;;;;;;;35.20;32.63;100110.02;1941697;99;25825;-80
2021/07/24 11:46:21;;;;;;;;;;;;;;;;;;;;;
2021/07/24 11:50:08;;;;;;;;;;;;;;;;;;;;;
2021/07/24 11:53:40;;;;;;;7.35;6.58;;;;;;;36.64;31.31;100134.23;2069984;95;25802;-79
2021/07/24 11:57:55;;;;;;;;;;;;;;;;;;;;;
2021/07/24 12:01:34;;;;;;;6.62;5.87;;;;;;;37.61;30.27;100114.05;2064257;95;25957;-75
2021/07/24 12:06:08;;;;;;;9.35;6.85;;;;;;;38.10;29.75;100114.82;2064628;95;25873;-79
2021/07/24 12:10:48;;;;;;;;;;;;;;;;;;;;;
2021/07/24 12:14:22;;;;;;;;;;;;;;;;;;;;;
2021/07/24 12:18:29;;;;;;;7.42;6.17;;;;;;;38.79;28.42;100111.34;2105603;93;25832;-78
2021/07/24 12:22:53;;;;;;;;;;;;;;;;;;;;;
2021/07/24 12:27:03;;;;;;;;;;;;;;;;;;;;;
2021/07/24 12:35:04;;;;;;;6.75;6.30;;;;;;;37.75;28.96;100097.27;2046611;96;25351;-80
2021/07/24 12:39:07;;;;;;;6.90;6.42;;;;;;;37.61;28.99;100092.28;2033301;92;26029;-77
2021/07/24 12:43:32;;;;;;;6.80;6.00;;;;;;;37.52;29.00;100091.28;1992484;98;25838;-75
2021/07/24 12:47:46;;;;;;;7.62;6.00;;;;;;;37.57;28.97;100087.64;1999436;97;25819;-80
2021/07/24 13:00:28;;;;;;;6.22;5.72;;;;;;;37.21;29.10;100085.11;1992923;97;25858;-77
2021/07/24 13:04:19;;;;;;;7.30;5.75;;;;;;;37.15;29.22;100086.17;1900379;100;25793;-80
2021/07/24 13:17:19;;;;;;;6.97;6.47;;;;;;;37.36;29.14;100067.86;1886044;104;25812;-80
2021/07/24 13:21:18;;;;;;;7.10;6.47;;;;;;;37.55;29.00;100073.31;1883944;103;26599;-80
2021/07/24 13:30:15;;;;;;;8.28;6.70;;;;;;;37.84;28.78;100073.78;1850105;105;31522;-74
2021/07/24 13:34:15;;;;;;;6.62;6.03;;;;;;;37.96;28.59;100073.97;1874493;103;25911;-80
2021/07/24 13:56:52;;;;;;;7.65;6.12;;;;;;;38.04;28.34;100073.25;1827035;106;26475;-80
2021/07/24 14:00:32;;;;;;;7.10;6.50;;;;;;;37.96;28.31;100070.39;1865193;105;25829;-77
2021/07/24 14:03:54;;;;;;;5.90;5.40;;;;;;;37.99;28.24;100069.59;1859535;105;25861;-78
2021/07/24 14:07:17;;;;;;;6.67;6.15;;;;;;;37.93;28.16;100074.77;1905243;102;25795;-78
2021/07/24 14:10:51;;;;;;;6.25;5.65;;;;;;;37.75;28.25;100070.56;1889767;102;25987;-77
2021/07/24 14:14:34;;;;;;;;;;;;;;;;;;;;;
2021/07/24 14:22:26;;;;;;;6.75;6.10;;;;;;;36.86;28.64;100072.05;1905460;103;26563;-79
2021/07/24 14:25:51;;;;;;;5.75;5.25;;;;;;;36.56;28.82;100072.98;1919148;100;26033;-80
2021/07/24 14:34:02;;;;;;;;;;;;;;;;;;;;;
2021/07/24 14:37:13;;;;;;;6.35;5.72;;;;;;;36.04;28.96;100068.93;1993107;97;26539;-80
2021/07/24 14:41:14;;;;;;;6.33;5.93;;;;;;;35.85;29.00;100063.39;1977851;98;25363;-79
2021/07/24 14:44:53;;;;;;;5.75;5.35;;;;;;;35.67;29.05;100065.33;1916995;101;25786;-78
2021/07/24 14:48:18;;;;;;;6.35;5.83;;;;;;;35.54;29.18;100065.17;1852514;105;26214;-79
2021/07/24 14:52:08;;;;;;;5.20;4.90;;;;;;;35.57;29.23;100062.20;1902368;103;26023;-79
2021/07/24 14:56:19;;;;;;;7.40;6.25;;;;;;;35.63;29.20;100060.32;1894222;101;25768;-81
2021/07/24 15:00:19;;;;;;;5.67;5.22;;;;;;;35.65;29.15;100057.84;1905798;102;25802;-80
2021/07/24 15:07:29;;;;;;;6.40;6.00;;;;;;;35.64;29.11;100057.48;1857231;105;25936;-80
2021/07/24 15:11:31;;;;;;;6.15;5.75;;;;;;;35.61;29.11;100057.75;1852411;104;25924;-79
2021/07/24 15:15:17;;;;;;;;;;;;;;;;;;;;;
2021/07/24 15:19:02;;;;;;;;;;;;;;;;;;;;;
2021/07/24 15:22:41;;;;;;;6.20;5.80;;;;;;;35.46;29.28;100050.89;2082819;94;25835;-74
2021/07/24 15:26:46;;;;;;;;;;;;;;;;;;;;;
2021/07/24 15:35:30;;;;;;;7.80;5.60;;;;;;;35.22;29.49;100045.72;1940527;100;25867;-75
2021/07/24 15:39:29;;;;;;;5.80;5.30;;;;;;;35.03;29.66;100037.42;1876763;102;25388;-76
2021/07/24 15:47:16;;;;;;;;;;;;;;;;;;;;;
2021/07/24 15:51:02;;;;;;;7.10;6.42;;;;;;;34.65;30.11;100031.48;1927832;100;25860;-80
2021/07/24 15:54:23;;;;;;;6.20;5.70;;;;;;;34.60;30.21;100026.95;1859327;104;25793;-81
2021/07/24 16:02:38;;;;;;;;;;;;;;;;;;;;;
2021/07/24 16:06:13;;;;;;;6.17;5.67;;;;;;;34.30;30.47;100019.47;2398515;80;25677;-76
2021/07/24 16:09:39;;;;;;;6.33;5.65;;;;;;;34.18;30.64;100021.30;2377715;81;25167;-80
2021/07/24 16:13:29;;;;;;;;;;;;;;;;;;;;;
2021/07/24 16:17:17;;;;;;;6.47;5.97;;;;;;;33.98;30.92;100021.52;2417943;81;25733;-81
2021/07/24 16:25:00;;;;;;;;;;;;;;;;;;;;;
2021/07/24 16:28:35;;;;;;;6.85;6.35;;;;;;;33.65;31.22;100007.97;2175971;85;25340;-79
2021/07/24 16:32:18;;;;;;;8.83;6.22;;;;;;;33.52;31.30;100005.39;2188658;90;25807;-82
2021/07/24 16:36:24;;;;;;;;;;;;;;;;;;;;;
2021/07/24 16:44:43;;;;;;;6.83;6.33;;;;;;;33.09;31.28;100001.42;2058308;96;26062;-80
2021/07/24 16:49:05;;;;;;;6.78;6.28;;;;;;;32.84;31.33;99998.81;2058658;91;26068;-74
2021/07/24 16:53:10;;;;;;;7.35;6.80;;;;;;;32.71;31.36;100004.30;2021100;97;25764;-79
2021/07/24 16:57:39;;;;;;;;;;;;;;;;;;;;;
2021/07/24 17:01:40;;;;;;;7.83;7.05;;;;;;;32.43;31.38;100009.52;2058931;96;25850;-80
2021/07/24 17:05:42;;;;;;;9.20;6.85;;;;;;;32.35;31.49;100001.95;1962463;98;25878;-78
2021/07/24 17:09:53;;;;;;;;;;;;;;;;;;;;;
2021/07/24 17:18:02;;;;;;;7.45;6.85;;;;;;;32.02;31.78;99989.08;1912440;103;26086;-80
2021/07/24 17:22:01;;;;;;;7.60;7.00;;;;;;;31.88;31.86;99994.12;1910623;103;26575;-80
2021/07/24 17:25:52;;;;;;;7.10;6.50;;;;;;;31.80;32.01;99997.83;1890830;99;25833;-79
2021/07/24 17:29:18;;;;;;;7.58;6.97;;;;;;;31.73;32.11;99991.15;1852995;105;25886;-76
2021/07/24 17:32:54;;;;;;;7.60;6.45;;;;;;;31.66;32.20;99987.16;1801016;108;25816;-79
2021/07/24 17:41:26;;;;;;;7.60;6.95;;;;;;;31.48;32.46;99994.68;1787551;109;26129;-77
2021/07/24 17:44:52;;;;;;;7.55;6.97;;;;;;;31.39;32.65;99989.95;1811517;107;25460;-74
2021/07/24 17:52:58;;;;;;;;;;;;;;;;;;;;;
2021/07/24 17:56:31;;;;;;;7.75;7.05;;;;;;;31.12;33.21;99977.84;1730803;111;25941;-81
2021/07/24 18:04:13;;;;;;;7.30;6.60;;;;;;;30.88;33.55;99979.91;1739016;111;25952;-77
2021/07/24 18:08:10;;;;;;;8.63;6.87;;;;;;;30.79;33.74;99977.34;1746154;112;25899;-80
2021/07/24 18:11:58;;;;;;;7.62;6.67;;;;;;;30.70;33.92;99977.91;1832810;106;25852;-80
2021/07/24 18:24:16;;;;;;;8.30;6.95;;;;;;;30.45;34.38;99986.75;1803642;108;25812;-81
2021/07/24 18:27:58;;;;;;;7.25;6.65;;;;;;;30.38;34.49;99989.95;1790660;109;25913;-79
2021/07/24 18:31:46;;;;;;;9.28;6.50;;;;;;;30.28;34.70;99997.75;1794923;108;25997;-81
2021/07/24 18:44:08;;;;;;;;;;;;;;;;;;;;;
2021/07/24 18:47:49;;;;;;;7.58;6.85;;;;;;;29.95;35.33;99997.55;1787884;108;26002;-74
2021/07/24 18:51:36;;;;;;;7.60;7.00;;;;;;;29.88;35.42;100007.81;1832128;108;25877;-80
2021/07/24 18:55:22;;;;;;;7.30;6.78;;;;;;;29.81;35.53;99997.07;1834175;106;26224;-81
2021/07/24 18:59:16;;;;;;;7.28;6.75;;;;;;;29.75;35.70;100007.34;1730145;113;26078;-81
2021/07/24 19:03:15;;;;;;;7.58;6.97;;;;;;;29.71;35.78;100019.23;1726156;113;25781;-80
2021/07/24 19:07:41;;;;;;;7.55;6.95;;;;;;;29.65;35.91;100017.30;1723524;112;26308;-78
2021/07/24 19:12:08;;;;;;;;;;;;;;;;;;;;;
2021/07/24 19:19:30;;;;;;;8.23;7.47;;;;;;;29.38;36.18;100018.95;1760519;109;25849;-81
2021/07/24 19:23:40;;;;;;;7.53;6.87;;;;;;;29.32;36.33;100024.20;1808313;109;25430;-81
2021/07/24 19:27:23;;;;;;;7.72;7.12;;;;;;;29.26;36.41;100020.56;1732351;111;26643;-80
2021/07/24 19:35:13;;;;;;;9.95;7.33;;;;;;;29.15;36.62;100019.84;1763980;109;25798;-74
2021/07/24 19:38:58;;;;;;;;;;;;;;;;;;;;;
2021/07/24 20:06:21;;;;;;;9.80;8.85;;;;;;;28.65;37.31;100011.56;1792024;107;25936;-80
2021/07/24 20:18:38;;;;;;;11.00;7.97;;;;;;;28.51;37.48;100011.46;1757945;110;25940;-80
2021/07/24 20:22:17;;;;;;;7.78;7.12;;;;;;;28.40;37.61;100000.48;1706193;114;25923;-81
2021/07/24 20:25:54;;;;;;;;;;;;;;;;;;;;;
2021/07/24 20:29:47;;;;;;;9.40;8.15;;;;;;;28.35;37.76;100002.52;1684862;115;26082;-78
2021/07/24 20:33:45;;;;;;;8.58;7.87;;;;;;;28.32;37.79;100000.89;1699812;113;25864;-80
2021/07/24 20:37:23;;;;;;;9.68;7.97;;;;;;;28.30;37.87;99999.24;1729781;112;25851;-74
2021/07/24 20:41:29;;;;;;;8.78;8.00;;;;;;;28.20;37.97;100001.09;1748492;111;25844;-80
2021/07/24 20:45:28;;;;;;;10.25;7.42;;;;;;;28.12;38.07;100003.83;1757392;111;25674;-77
2021/07/24 20:53:48;;;;;;;;;;;;;;;;;;;;;
2021/07/24 21:03:38;;;;;;;;;;;;;;;27.93;38.27;100011.98;1645749;118;25972;-80
2021/07/24 21:19:49;;;;;;;11.33;7.00;;;;;;;27.61;38.62;100010.98;1647325;118;25895;-82
2021/07/24 21:24:19;;;;;;;;;;;;;;;;;;;;;
2021/07/24 21:28:18;;;;;;;7.65;6.83;;;;;;;27.62;38.71;100012.26;1717209;113;26613;-82
2021/07/24 21:32:35;;;;;;;;;;;;;;;;;;;;;
2021/07/24 21:49:34;;;;;;;7.20;6.62;;;;;;;27.51;38.91;100009.29;1814079;107;25884;-80
2021/07/24 22:13:03;;;;;;;;;;;;;;;;;;;;;
2021/07/24 22:16:48;;;;;;;7.92;7.30;;;;;;;27.52;38.89;100011.02;1655390;117;25866;-81
2021/07/24 22:27:17;;;;;;;8.00;7.30;;;;;;;27.50;39.03;100007.53;1573428;121;26205;-80
2021/07/24 22:36:42;;;;;;;;;;;;;;;;;;;;;
2021/07/24 22:40:45;;;;;;;;;;;;;;;;;;;;;
2021/07/24 22:49:04;;;;;;;9.23;7.00;;;;;;;27.47;38.94;100010.37;1621211;120;25506;-78
2021/07/24 22:53:04;;;;;;;8.70;7.33;;;;;;;27.47;38.92;100009.92;1621792;120;25569;-81
2021/07/24 23:01:31;;;;;;;8.05;6.80;;;;;;;27.41;38.93;100021.43;1664771;115;26272;-75
2021/07/24 23:04:56;;;;;;;8.05;7.35;;;;;;;27.36;38.94;100021.64;1713710;113;25867;-74
2021/07/24 23:17:28;;;;;;;;;;;;;;;;;;;;;
2021/07/24 23:26:26;;;;;;;;;;;;;;;27.17;39.33;99994.98;1822181;107;25815;-81
2021/07/24 23:34:39;;;;;;;;;;;;;;;;;;;;;
2021/07/24 23:38:28;;;;;;;8.65;7.60;;;;;;;27.09;39.68;99983.27;1829974;103;25984;-82
2021/07/24 23:50:22;;;;;;;10.18;7.67;;;;;;;27.04;39.76;99985.81;1829887;105;25915;-82
2021/07/24 23:59:01;;;;;;;7.92;7.22;;;;;;;26.91;39.79;99988.71;1775590;107;25634;-81
